Shekhupura, Pakistan
Current Conditions -  °F | °C
As of 11:25 PM on Thursday 30 Oct 2014 (Local Time) from OPLA Reporting Station
Smoke Smoke  
Wind Chill: 22°   Ceiling: Unl
Heat Index: 22°   Visibility: 2.5mi
Dew Point: 14°   Wind: 0mph
Humidity: 60%   Direction: NA
Pressure: NA   Gusts: NA
Location:  31.72°N, 73.98°E
Report Text: OPLA 301825Z 00000KT 4000 FU NSC 22/14 Q1015/A29.98
Loading
Personal Weather Stations






























Interactive Weather Map
Tropical Storm Tracking
New forecast layout! Learn more

10-Day Weather Forecast

Advertisements
Track Severe Weather on mobile